createdAt,value
2017-01-16T00:00:48.387Z,99.99
2017-01-16T00:01:48.040Z,99.99
2017-01-16T00:02:48.338Z,99.99
2017-01-16T00:03:48.634Z,99.99
2017-01-16T00:04:47.874Z,99.99
2017-01-16T00:05:48.252Z,99.99
2017-01-16T00:06:48.234Z,99.99
2017-01-16T00:07:47.884Z,99.99
2017-01-16T00:08:48.505Z,99.99
2017-01-16T00:09:47.742Z,99.99
2017-01-16T00:10:48.131Z,99.99
2017-01-16T00:11:48.085Z,99.99
2017-01-16T00:12:48.070Z,99.99
2017-01-16T00:13:47.714Z,99.99
2017-01-16T00:14:47.609Z,99.99
2017-01-16T00:15:48.175Z,99.99
2017-01-16T00:16:48.304Z,99.99
2017-01-16T00:17:47.933Z,99.99
2017-01-16T00:18:48.239Z,99.99
2017-01-16T00:19:48.221Z,99.99
2017-01-16T00:20:48.183Z,99.99
2017-01-16T00:21:47.845Z,99.99
2017-01-16T00:22:47.799Z,99.99
2017-01-16T00:23:48.003Z,99.99
2017-01-16T00:24:47.753Z,99.99
2017-01-16T00:25:48.093Z,99.99
2017-01-16T00:26:47.702Z,99.99
2017-01-16T00:27:47.352Z,99.99
2017-01-16T00:28:47.641Z,99.99
2017-01-16T00:29:47.220Z,99.99
2017-01-16T00:30:47.268Z,99.99
2017-01-16T00:31:47.889Z,99.99
2017-01-16T00:32:47.209Z,99.99
2017-01-16T00:33:47.851Z,99.99
2017-01-16T00:34:47.178Z,99.99
2017-01-16T00:35:47.203Z,99.99
2017-01-16T00:36:47.547Z,99.99
2017-01-16T00:37:47.736Z,99.99
2017-01-16T00:38:47.736Z,99.99
2017-01-16T00:39:47.426Z,99.99
2017-01-16T00:40:47.013Z,99.99
2017-01-16T00:41:47.647Z,99.99
2017-01-16T00:42:47.382Z,99.99
2017-01-16T00:43:47.591Z,99.99
2017-01-16T00:44:47.564Z,99.99
2017-01-16T00:45:47.540Z,99.99
2017-01-16T00:46:47.507Z,99.99
2017-01-16T00:47:47.236Z,99.99
2017-01-16T00:48:47.119Z,99.99
2017-01-16T00:49:47.099Z,99.99
2017-01-16T00:50:47.409Z,99.99
2017-01-16T00:51:47.354Z,99.99
2017-01-16T00:52:47.005Z,99.99
2017-01-16T00:53:47.319Z,99.99
2017-01-16T00:54:47.285Z,99.99
2017-01-16T00:55:47.291Z,99.99
2017-01-16T00:56:47.238Z,99.99
2017-01-16T00:57:47.204Z,99.99
2017-01-16T00:58:46.923Z,99.99
2017-01-16T00:59:47.144Z,99.99
2017-01-16T01:00:46.395Z,99.99
2017-01-16T01:01:47.111Z,99.99
2017-01-16T01:02:46.946Z,99.99
2017-01-16T01:03:46.720Z,99.99
2017-01-16T01:04:46.686Z,99.99
2017-01-16T01:05:46.349Z,99.99
2017-01-16T01:06:46.323Z,99.99
2017-01-16T01:07:46.947Z,99.99
2017-01-16T01:08:46.925Z,99.99
2017-01-16T01:09:46.892Z,99.99
2017-01-16T01:10:46.130Z,99.99
2017-01-16T01:11:46.195Z,99.99
2017-01-16T01:12:46.173Z,99.99
2017-01-16T01:13:46.654Z,99.99
2017-01-16T01:14:46.427Z,99.99
2017-01-16T01:15:46.406Z,99.99
2017-01-16T01:16:46.699Z,99.99
2017-01-16T01:17:46.686Z,99.99
2017-01-16T01:18:46.318Z,99.99
2017-01-16T01:19:46.310Z,99.99
2017-01-16T01:20:46.622Z,99.99
2017-01-16T01:21:46.580Z,99.99
2017-01-16T01:22:46.555Z,99.99
2017-01-16T01:23:45.875Z,99.99
2017-01-16T01:24:46.505Z,99.99
2017-01-16T01:25:45.727Z,99.99
2017-01-16T01:26:45.806Z,99.99
2017-01-16T01:27:45.766Z,99.99
2017-01-16T01:28:46.276Z,99.99
2017-01-16T01:29:45.717Z,99.99
2017-01-16T01:30:46.375Z,99.99
2017-01-16T01:31:45.984Z,99.99
2017-01-16T01:32:46.049Z,99.99
2017-01-16T01:33:45.600Z,99.99
2017-01-16T01:34:45.591Z,99.99
2017-01-16T01:35:45.873Z,99.99
2017-01-16T01:36:45.622Z,99.99
2017-01-16T01:37:46.151Z,99.99
2017-01-16T01:38:45.795Z,99.99
2017-01-16T01:39:45.359Z,99.99
2017-01-16T01:40:45.433Z,99.99
2017-01-16T01:41:45.312Z,99.99
2017-01-16T01:42:46.033Z,99.99
2017-01-16T01:43:45.996Z,99.99
2017-01-16T01:44:45.315Z,99.99
2017-01-16T01:45:45.955Z,99.99
2017-01-16T01:46:45.922Z,99.99
2017-01-16T01:47:45.227Z,99.99
2017-01-16T01:48:45.850Z,99.99
2017-01-16T01:49:45.175Z,99.99
2017-01-16T01:50:45.482Z,99.99
2017-01-16T01:51:45.444Z,99.99
2017-01-16T01:52:45.113Z,99.99
2017-01-16T01:53:45.738Z,99.99
2017-01-16T01:54:45.702Z,99.99
2017-01-16T01:55:45.021Z,99.99
2017-01-16T01:56:45.086Z,99.99
2017-01-16T01:57:44.973Z,99.99
2017-01-16T01:58:45.591Z,99.99
2017-01-16T01:59:44.840Z,99.99
2017-01-16T02:00:44.938Z,99.99
2017-01-16T02:01:45.522Z,99.99
2017-01-16T02:02:45.334Z,99.99
2017-01-16T02:03:44.738Z,99.99
2017-01-16T02:04:45.105Z,99.99
2017-01-16T02:05:44.756Z,99.99
2017-01-16T02:06:45.385Z,99.99
2017-01-16T02:07:45.380Z,99.99
2017-01-16T02:08:45.000Z,99.99
2017-01-16T02:09:45.328Z,99.99
2017-01-16T02:10:44.946Z,99.99
2017-01-16T02:11:45.250Z,99.99
2017-01-16T02:12:45.222Z,99.99
2017-01-16T02:13:44.551Z,99.99
2017-01-16T02:14:45.179Z,99.99
2017-01-16T02:15:45.135Z,99.99
2017-01-16T02:16:45.140Z,99.99
2017-01-16T02:17:44.447Z,99.99
2017-01-16T02:18:45.044Z,99.99
2017-01-16T02:19:44.387Z,99.99
2017-01-16T02:20:45.016Z,99.99
2017-01-16T02:21:45.011Z,99.99
2017-01-16T02:22:44.965Z,99.99
2017-01-16T02:23:44.931Z,99.99
2017-01-16T02:24:44.568Z,99.99
2017-01-16T02:25:44.234Z,99.99
2017-01-16T02:26:44.864Z,99.99
2017-01-16T02:27:44.823Z,99.99
2017-01-16T02:28:44.470Z,99.99
2017-01-16T02:29:44.118Z,99.99
2017-01-16T02:30:44.086Z,99.99
2017-01-16T02:31:44.055Z,99.99
2017-01-16T02:32:44.365Z,99.99
2017-01-16T02:33:44.002Z,99.99
2017-01-16T02:34:43.998Z,99.99
2017-01-16T02:35:44.664Z,99.99
2017-01-16T02:36:44.587Z,99.99
2017-01-16T02:37:44.297Z,99.99
2017-01-16T02:38:44.526Z,99.99
2017-01-16T02:39:44.425Z,99.99
2017-01-16T02:40:44.336Z,99.99
2017-01-16T02:41:44.224Z,99.99
2017-01-16T02:42:43.798Z,99.99
2017-01-16T02:43:43.697Z,99.99
2017-01-16T02:44:43.710Z,99.99
2017-01-16T02:45:44.012Z,99.99
2017-01-16T02:46:44.316Z,99.99
2017-01-16T02:47:44.300Z,99.99
2017-01-16T02:48:44.261Z,99.99
2017-01-16T02:49:43.662Z,99.99
2017-01-16T02:50:43.552Z,99.99
2017-01-16T02:51:44.691Z,99.99
2017-01-16T02:52:44.729Z,99.99
2017-01-16T02:53:43.468Z,99.99
2017-01-16T02:54:43.773Z,99.99
2017-01-16T02:55:44.088Z,99.99
2017-01-16T02:56:43.400Z,99.99
2017-01-16T02:57:44.022Z,99.99
2017-01-16T02:58:43.996Z,99.99
2017-01-16T02:59:43.961Z,99.99
2017-01-16T03:00:43.955Z,99.99
2017-01-16T03:01:43.262Z,99.99
2017-01-16T03:02:43.563Z,99.99
2017-01-16T03:03:43.126Z,99.99
2017-01-16T03:04:43.862Z,99.99
2017-01-16T03:05:43.161Z,99.99
2017-01-16T03:06:43.136Z,99.99
2017-01-16T03:07:43.747Z,99.99
2017-01-16T03:08:43.750Z,99.99
2017-01-16T03:09:43.709Z,99.99
2017-01-16T03:10:43.699Z,99.99
2017-01-16T03:11:42.992Z,99.99
2017-01-16T03:12:43.624Z,99.99
2017-01-16T03:13:42.947Z,99.99
2017-01-16T03:14:43.577Z,99.99
2017-01-16T03:15:43.554Z,99.99
2017-01-16T03:16:42.866Z,99.99
2017-01-16T03:17:43.491Z,99.99
2017-01-16T03:18:42.814Z,99.99
2017-01-16T03:19:43.439Z,99.99
2017-01-16T03:20:42.687Z,99.99
2017-01-16T03:21:42.658Z,99.99
2017-01-16T03:22:42.712Z,99.99
2017-01-16T03:23:42.612Z,99.99
2017-01-16T03:24:43.371Z,99.99
2017-01-16T03:25:42.635Z,99.99
2017-01-16T03:26:43.181Z,99.99
2017-01-16T03:27:42.572Z,99.99
2017-01-16T03:28:43.074Z,99.99
2017-01-16T03:29:42.450Z,99.99
2017-01-16T03:30:43.190Z,99.99
2017-01-16T03:31:43.131Z,99.99
2017-01-16T03:32:42.448Z,99.99
2017-01-16T03:33:43.055Z,99.99
2017-01-16T03:34:43.056Z,99.99
2017-01-16T03:35:43.010Z,99.99
2017-01-16T03:36:43.005Z,99.99
2017-01-16T03:37:42.995Z,99.99
2017-01-16T03:38:42.292Z,99.99
2017-01-16T03:39:42.905Z,99.99
2017-01-16T03:40:42.975Z,99.99
2017-01-16T03:41:42.873Z,99.99
2017-01-16T03:42:42.839Z,99.99
2017-01-16T03:43:42.151Z,99.99
2017-01-16T03:44:42.773Z,99.99
2017-01-16T03:45:42.751Z,99.99
2017-01-16T03:46:42.598Z,99.99
2017-01-16T03:47:42.700Z,99.99
2017-01-16T03:48:42.675Z,99.99
2017-01-16T03:49:42.648Z,99.99
2017-01-16T03:50:41.979Z,99.99
2017-01-16T03:51:42.597Z,99.99
2017-01-16T03:52:42.589Z,99.99
2017-01-16T03:53:41.903Z,99.99
2017-01-16T03:54:42.526Z,99.99
2017-01-16T03:55:42.480Z,99.99
2017-01-16T03:56:42.135Z,99.99
2017-01-16T03:57:41.796Z,99.99
2017-01-16T03:58:41.693Z,99.99
2017-01-16T03:59:42.383Z,99.99
2017-01-16T04:00:42.393Z,99.99
2017-01-16T04:01:41.681Z,99.99
2017-01-16T04:02:41.972Z,99.99
2017-01-16T04:03:41.622Z,99.99
2017-01-16T04:04:41.607Z,99.99
2017-01-16T04:05:42.220Z,99.99
2017-01-16T04:06:41.654Z,99.99
2017-01-16T04:07:41.520Z,99.99
2017-01-16T04:08:42.139Z,99.99
2017-01-16T04:09:41.792Z,99.99
2017-01-16T04:10:42.078Z,99.99
2017-01-16T04:11:41.331Z,99.99
2017-01-16T04:12:42.045Z,99.99
2017-01-16T04:13:41.997Z,99.99
2017-01-16T04:14:41.991Z,99.99
2017-01-16T04:15:41.216Z,99.99
2017-01-16T04:16:41.797Z,99.99
2017-01-16T04:17:41.254Z,99.99
2017-01-16T04:18:41.230Z,99.99
2017-01-16T04:19:41.873Z,99.99
2017-01-16T04:20:41.818Z,99.99
2017-01-16T04:21:41.802Z,99.99
2017-01-16T04:22:41.771Z,99.99
2017-01-16T04:23:41.406Z,99.99
2017-01-16T04:24:41.731Z,99.99
2017-01-16T04:25:41.357Z,99.99
2017-01-16T04:26:41.320Z,99.99
2017-01-16T04:27:40.984Z,99.99
2017-01-16T04:28:40.969Z,99.99
2017-01-16T04:29:41.258Z,99.99
2017-01-16T04:30:41.220Z,99.99
2017-01-16T04:31:41.606Z,99.99
2017-01-16T04:32:40.766Z,99.99
2017-01-16T04:33:41.472Z,99.99
2017-01-16T04:34:40.715Z,99.99
2017-01-16T04:35:41.091Z,99.99
2017-01-16T04:36:41.402Z,99.99
2017-01-16T04:37:41.031Z,99.99
2017-01-16T04:38:40.699Z,99.99
2017-01-16T04:39:40.672Z,99.99
2017-01-16T04:40:40.629Z,99.99
2017-01-16T04:41:41.275Z,99.99
2017-01-16T04:42:40.505Z,99.99
2017-01-16T04:43:40.560Z,99.99
2017-01-16T04:44:40.539Z,99.99
2017-01-16T04:45:40.513Z,99.99
2017-01-16T04:46:40.974Z,99.99
2017-01-16T04:47:40.975Z,99.99
2017-01-16T04:48:41.094Z,99.99
2017-01-16T04:49:40.917Z,99.99
2017-01-16T04:50:40.691Z,99.99
2017-01-16T04:51:40.268Z,99.99
2017-01-16T04:52:40.315Z,99.99
2017-01-16T04:53:40.944Z,99.99
2017-01-16T04:54:40.584Z,99.99
2017-01-16T04:55:40.902Z,99.99
2017-01-16T04:56:40.133Z,99.99
2017-01-16T04:57:40.512Z,99.99
2017-01-16T04:58:40.822Z,99.99
2017-01-16T04:59:40.872Z,99.99
2017-01-16T05:00:40.427Z,99.99
2017-01-16T05:01:40.735Z,99.99
2017-01-16T05:02:40.050Z,99.99
2017-01-16T05:03:40.674Z,99.99
2017-01-16T05:04:40.648Z,99.99
2017-01-16T05:05:39.981Z,99.99
2017-01-16T05:06:40.596Z,99.99
2017-01-16T05:07:40.567Z,99.99
2017-01-16T05:08:40.216Z,99.99
2017-01-16T05:09:40.186Z,99.99
2017-01-16T05:10:40.165Z,99.99
2017-01-16T05:11:40.455Z,99.99
2017-01-16T05:12:40.116Z,99.99
2017-01-16T05:13:40.101Z,99.99
2017-01-16T05:14:40.381Z,99.99
2017-01-16T05:15:40.349Z,99.99
2017-01-16T05:16:40.349Z,99.99
2017-01-16T05:17:40.312Z,99.99
2017-01-16T05:18:39.631Z,99.99
2017-01-16T05:19:40.280Z,99.99
2017-01-16T05:20:40.235Z,99.99
2017-01-16T05:21:40.205Z,99.99
2017-01-16T05:22:40.178Z,99.99
2017-01-16T05:23:40.171Z,99.99
2017-01-16T05:24:39.467Z,99.99
2017-01-16T05:25:39.766Z,99.99
2017-01-16T05:26:39.418Z,99.99
2017-01-16T05:27:39.306Z,99.99
2017-01-16T05:28:39.371Z,99.99
2017-01-16T05:29:39.386Z,99.99
2017-01-16T05:30:39.954Z,99.99
2017-01-16T05:31:39.929Z,99.99
2017-01-16T05:32:39.184Z,99.99
2017-01-16T05:33:39.154Z,99.99
2017-01-16T05:34:39.853Z,99.99
2017-01-16T05:35:39.488Z,99.99
2017-01-16T05:36:39.818Z,99.99
2017-01-16T05:37:39.045Z,99.99
2017-01-16T05:38:39.420Z,99.99
2017-01-16T05:39:38.983Z,99.99
2017-01-16T05:40:39.045Z,99.99
2017-01-16T05:41:39.028Z,99.99
2017-01-16T05:42:39.307Z,99.99
2017-01-16T05:43:39.616Z,99.99
2017-01-16T05:44:39.607Z,99.99
2017-01-16T05:45:39.547Z,99.99
2017-01-16T05:46:38.896Z,99.99
2017-01-16T05:47:39.173Z,99.99
2017-01-16T05:48:39.155Z,99.99
2017-01-16T05:49:38.715Z,99.99
2017-01-16T05:50:39.424Z,99.99
2017-01-16T05:51:39.413Z,99.99
2017-01-16T05:52:38.734Z,99.99
2017-01-16T05:53:39.362Z,99.99
2017-01-16T05:54:38.665Z,99.99
2017-01-16T05:55:39.292Z,99.99
2017-01-16T05:56:38.622Z,99.99
2017-01-16T05:57:39.244Z,99.99
2017-01-16T05:58:39.218Z,99.99
2017-01-16T05:59:39.189Z,99.99
2017-01-16T06:00:39.179Z,99.99
2017-01-16T06:01:38.479Z,99.99
2017-01-16T06:02:38.379Z,99.99
2017-01-16T06:03:39.077Z,99.99
2017-01-16T06:04:38.398Z,99.99
2017-01-16T06:05:39.045Z,99.99
2017-01-16T06:06:38.677Z,99.99
2017-01-16T06:07:38.651Z,99.99
2017-01-16T06:08:38.289Z,99.99
2017-01-16T06:09:38.933Z,99.99
2017-01-16T06:10:38.564Z,99.99
2017-01-16T06:11:38.862Z,99.99
2017-01-16T06:12:38.845Z,99.99
2017-01-16T06:13:38.814Z,99.99
2017-01-16T06:14:38.789Z,99.99
2017-01-16T06:15:38.765Z,99.99
2017-01-16T06:16:38.398Z,99.99
2017-01-16T06:17:38.055Z,99.99
2017-01-16T06:18:38.017Z,99.99
2017-01-16T06:19:38.658Z,99.99
2017-01-16T06:20:37.980Z,99.99
2017-01-16T06:21:38.607Z,99.99
2017-01-16T06:22:37.914Z,99.99
2017-01-16T06:23:38.216Z,99.99
2017-01-16T06:24:38.187Z,99.99
2017-01-16T06:25:37.755Z,99.99
2017-01-16T06:26:38.455Z,99.99
2017-01-16T06:27:38.420Z,99.99
2017-01-16T06:28:38.418Z,99.99
2017-01-16T06:29:38.052Z,99.99
2017-01-16T06:30:38.028Z,99.99
2017-01-16T06:31:37.594Z,99.99
2017-01-16T06:32:37.652Z,99.99
2017-01-16T06:33:37.551Z,99.99
2017-01-16T06:34:37.594Z,99.99
2017-01-16T06:35:38.251Z,99.99
2017-01-16T06:36:38.197Z,99.99
2017-01-16T06:37:38.037Z,99.99
2017-01-16T06:38:38.146Z,99.99
2017-01-16T06:39:37.787Z,99.99
2017-01-16T06:40:37.957Z,99.99
2017-01-16T06:41:37.736Z,99.99
2017-01-16T06:42:37.457Z,99.99
2017-01-16T06:43:37.270Z,99.99
2017-01-16T06:44:38.008Z,99.99
2017-01-16T06:45:37.954Z,99.99
2017-01-16T06:46:37.940Z,99.99
2017-01-16T06:47:37.899Z,99.99
2017-01-16T06:48:37.887Z,99.99
2017-01-16T06:49:37.513Z,99.99
2017-01-16T06:50:37.838Z,99.99
2017-01-16T06:51:37.800Z,99.99
2017-01-16T06:52:37.439Z,99.99
2017-01-16T06:53:37.750Z,99.99
2017-01-16T06:54:36.980Z,99.99
2017-01-16T06:55:37.688Z,99.99
2017-01-16T06:56:37.348Z,99.99
2017-01-16T06:57:37.633Z,99.99
2017-01-16T06:58:37.622Z,99.99
2017-01-16T06:59:37.695Z,99.99
2017-01-16T07:00:36.897Z,99.99
2017-01-16T07:01:37.211Z,99.99
2017-01-16T07:02:37.389Z,99.99
2017-01-16T07:03:37.474Z,99.99
2017-01-16T07:04:37.115Z,99.99
2017-01-16T07:05:37.114Z,99.99
2017-01-16T07:06:37.100Z,99.99
2017-01-16T07:07:37.373Z,99.99
2017-01-16T07:08:37.343Z,99.99
2017-01-16T07:09:36.660Z,99.99
2017-01-16T07:10:37.296Z,99.99
2017-01-16T07:11:37.291Z,99.99
2017-01-16T07:12:36.593Z,99.99
2017-01-16T07:13:36.571Z,99.99
2017-01-16T07:14:36.854Z,99.99
2017-01-16T07:15:36.828Z,99.99
2017-01-16T07:16:36.397Z,99.99
2017-01-16T07:17:37.106Z,99.99
2017-01-16T07:18:36.741Z,99.99
2017-01-16T07:19:37.106Z,99.99
2017-01-16T07:20:36.366Z,99.99
2017-01-16T07:21:36.983Z,99.99
2017-01-16T07:22:36.978Z,99.99
2017-01-16T07:23:36.953Z,99.99
2017-01-16T07:24:36.280Z,99.99
2017-01-16T07:25:36.224Z,99.99
2017-01-16T07:26:36.864Z,99.99
2017-01-16T07:27:36.829Z,99.99
2017-01-16T07:28:36.076Z,99.99
2017-01-16T07:29:36.124Z,99.99
2017-01-16T07:30:36.771Z,99.99
2017-01-16T07:31:36.073Z,99.99
2017-01-16T07:32:36.065Z,99.99
2017-01-16T07:33:36.689Z,99.99
2017-01-16T07:34:36.001Z,99.99
2017-01-16T07:35:36.611Z,99.99
2017-01-16T07:36:36.591Z,99.99
2017-01-16T07:37:35.913Z,99.99
2017-01-16T07:38:36.547Z,99.99
2017-01-16T07:39:35.867Z,99.99
2017-01-16T07:40:35.831Z,99.99
2017-01-16T07:41:35.730Z,99.99
2017-01-16T07:42:35.708Z,99.99
2017-01-16T07:43:36.425Z,99.99
2017-01-16T07:44:36.372Z,99.99
2017-01-16T07:45:36.021Z,99.99
2017-01-16T07:46:35.688Z,99.99
2017-01-16T07:47:35.566Z,99.99
2017-01-16T07:48:35.943Z,99.99
2017-01-16T07:49:35.660Z,99.99
2017-01-16T07:50:35.496Z,99.99
2017-01-16T07:51:35.551Z,99.99
2017-01-16T07:52:36.163Z,99.99
2017-01-16T07:53:36.142Z,99.99
2017-01-16T07:54:35.460Z,99.99
2017-01-16T07:55:35.436Z,99.99
2017-01-16T07:56:36.055Z,99.99
2017-01-16T07:57:35.381Z,99.99
2017-01-16T07:58:36.035Z,99.99
2017-01-16T07:59:35.988Z,99.99
2017-01-16T08:00:35.625Z,99.99
2017-01-16T08:01:35.279Z,99.99
2017-01-16T08:02:35.816Z,99.99
2017-01-16T08:03:35.873Z,99.99
2017-01-16T08:04:35.198Z,99.99
2017-01-16T08:05:35.097Z,99.99
2017-01-16T08:06:35.517Z,99.99
2017-01-16T08:07:35.761Z,99.99
2017-01-16T08:08:35.004Z,99.99
2017-01-16T08:09:34.977Z,99.99
2017-01-16T08:10:35.055Z,99.99
2017-01-16T08:11:35.024Z,99.99
2017-01-16T08:12:35.309Z,99.99
2017-01-16T08:13:35.475Z,99.99
2017-01-16T08:14:35.579Z,99.99
2017-01-16T08:15:35.571Z,99.99
2017-01-16T08:16:34.891Z,99.99
2017-01-16T08:17:35.518Z,99.99
2017-01-16T08:18:35.149Z,99.99
2017-01-16T08:19:35.444Z,99.99
2017-01-16T08:20:35.096Z,99.99
2017-01-16T08:21:34.766Z,99.99
2017-01-16T08:22:35.038Z,99.99
2017-01-16T08:23:34.701Z,99.99
2017-01-16T08:24:34.675Z,99.99
2017-01-16T08:25:34.655Z,99.99
2017-01-16T08:26:34.616Z,99.99
2017-01-16T08:27:35.264Z,99.99
2017-01-16T08:28:34.483Z,99.99
2017-01-16T08:29:34.455Z,99.99
2017-01-16T08:30:34.518Z,99.99
2017-01-16T08:31:35.121Z,99.99
2017-01-16T08:32:35.122Z,99.99
2017-01-16T08:33:34.758Z,99.99
2017-01-16T08:34:34.416Z,99.99
2017-01-16T08:35:34.694Z,99.99
2017-01-16T08:36:35.007Z,99.99
2017-01-16T08:37:34.847Z,99.99
2017-01-16T08:38:34.812Z,99.99
2017-01-16T08:39:34.188Z,99.99
2017-01-16T08:40:34.903Z,99.99
2017-01-16T08:41:34.537Z,99.99
2017-01-16T08:42:34.854Z,99.99
2017-01-16T08:43:34.484Z,99.99
2017-01-16T08:44:34.793Z,99.99
2017-01-16T08:45:34.642Z,99.99
2017-01-16T08:46:34.104Z,99.99
2017-01-16T08:47:34.721Z,99.99
2017-01-16T08:48:34.042Z,99.99
2017-01-16T08:49:34.022Z,99.99
2017-01-16T08:50:33.992Z,99.99
2017-01-16T08:51:34.281Z,99.99
2017-01-16T08:52:34.261Z,99.99
2017-01-16T08:53:34.575Z,99.99
2017-01-16T08:54:34.203Z,99.99
2017-01-16T08:55:34.198Z,99.99
2017-01-16T08:56:34.358Z,99.99
2017-01-16T08:57:34.477Z,99.99
2017-01-16T08:58:33.806Z,99.99
2017-01-16T08:59:34.420Z,99.99
2017-01-16T09:00:34.403Z,99.99
2017-01-16T09:01:33.630Z,99.99
2017-01-16T09:02:34.321Z,99.99
2017-01-16T09:03:34.305Z,99.99
2017-01-16T09:04:33.645Z,99.99
2017-01-16T09:05:34.251Z,99.99
2017-01-16T09:06:33.594Z,99.99
2017-01-16T09:07:33.881Z,99.99
2017-01-16T09:08:33.543Z,99.99
2017-01-16T09:09:33.424Z,99.99
2017-01-16T09:10:33.486Z,99.99
2017-01-16T09:11:33.511Z,99.99
2017-01-16T09:12:34.087Z,99.99
2017-01-16T09:13:34.060Z,99.99
2017-01-16T09:14:34.047Z,99.99
2017-01-16T09:15:34.019Z,99.99
2017-01-16T09:16:33.268Z,99.99
2017-01-16T09:17:34.003Z,99.99
2017-01-16T09:18:33.607Z,99.99
2017-01-16T09:19:33.300Z,99.99
2017-01-16T09:20:33.876Z,99.99
2017-01-16T09:21:33.968Z,99.99
2017-01-16T09:22:33.856Z,99.99
2017-01-16T09:23:33.076Z,99.99
2017-01-16T09:24:33.795Z,99.99
2017-01-16T09:25:33.421Z,99.99
2017-01-16T09:26:33.743Z,99.99
2017-01-16T09:27:33.052Z,99.99
2017-01-16T09:28:33.428Z,99.99
2017-01-16T09:29:32.918Z,99.99
2017-01-16T09:30:32.971Z,99.99
2017-01-16T09:31:33.283Z,99.99
2017-01-16T09:32:32.931Z,99.99
2017-01-16T09:33:32.820Z,99.99
2017-01-16T09:34:33.531Z,99.99
2017-01-16T09:35:33.070Z,99.99
2017-01-16T09:36:33.493Z,99.99
2017-01-16T09:37:32.809Z,99.99
2017-01-16T09:38:33.306Z,99.99
2017-01-16T09:39:33.409Z,99.35
2017-01-16T09:40:33.275Z,98.36
2017-01-16T09:41:32.726Z,96.93
2017-01-16T09:42:33.356Z,95.56
2017-01-16T09:43:33.310Z,94.7
2017-01-16T09:44:33.308Z,94.13
2017-01-16T09:45:33.302Z,94.51
2017-01-16T09:46:32.944Z,95.6
2017-01-16T09:47:32.914Z,95.79
2017-01-16T09:48:33.214Z,96.65
2017-01-16T09:49:32.553Z,97.74
2017-01-16T09:50:32.853Z,98.5
2017-01-16T09:51:32.426Z,99.26
2017-01-16T09:52:32.403Z,99.99
2017-01-16T09:53:33.121Z,99.99
2017-01-16T09:54:33.107Z,99.99
2017-01-16T09:55:32.420Z,99.97
2017-01-16T09:56:32.321Z,98.69
2017-01-16T09:57:33.037Z,96.93
2017-01-16T09:58:33.026Z,96.26
2017-01-16T09:59:32.988Z,95.75
2017-01-16T10:00:32.238Z,95.41
2017-01-16T10:01:32.951Z,96.69
2017-01-16T10:02:32.288Z,97.83
2017-01-16T10:03:32.253Z,98.59
2017-01-16T10:04:32.917Z,98.59
2017-01-16T10:05:32.885Z,98.88
2017-01-16T10:06:32.206Z,97.74
2017-01-16T10:07:32.814Z,96.98
2017-01-16T10:08:32.173Z,98.31
2017-01-16T10:09:32.461Z,98.5
2017-01-16T10:10:32.453Z,98.83
2017-01-16T10:11:32.008Z,99.02
2017-01-16T10:12:32.737Z,99.58
2017-01-16T10:13:32.712Z,99.99
2017-01-16T10:14:31.963Z,99.99
2017-01-16T10:15:32.021Z,99.99
2017-01-16T10:16:32.311Z,99.99
2017-01-16T10:17:32.642Z,99.99
2017-01-16T10:18:32.612Z,99.99
2017-01-16T10:19:32.609Z,99.99
2017-01-16T10:20:31.908Z,99.99
2017-01-16T10:21:31.983Z,99.99
2017-01-16T10:22:32.518Z,99.99
2017-01-16T10:23:32.498Z,99.99
2017-01-16T10:24:31.728Z,99.99
2017-01-16T10:25:32.444Z,99.99
2017-01-16T10:26:31.765Z,99.99
2017-01-16T10:27:32.406Z,99.99
2017-01-16T10:28:32.242Z,99.99
2017-01-16T10:29:32.345Z,99.99
2017-01-16T10:30:32.329Z,99.99
2017-01-16T10:31:32.299Z,99.99
2017-01-16T10:32:32.262Z,99.99
2017-01-16T10:33:32.253Z,99.99
2017-01-16T10:34:32.206Z,99.68
2017-01-16T10:35:32.079Z,98.64
2017-01-16T10:36:32.171Z,98.73
2017-01-16T10:37:31.447Z,98.64
2017-01-16T10:38:31.823Z,98.54
2017-01-16T10:39:32.140Z,98.64
2017-01-16T10:40:31.359Z,97.97
2017-01-16T10:41:31.433Z,98.73
2017-01-16T10:42:32.068Z,99.06
2017-01-16T10:43:32.037Z,99.44
2017-01-16T10:44:32.034Z,99.99
2017-01-16T10:45:31.847Z,99.99
2017-01-16T10:46:31.618Z,99.99
2017-01-16T10:47:31.929Z,99.99
2017-01-16T10:48:31.937Z,99.99
2017-01-16T10:49:31.155Z,99.99
2017-01-16T10:50:31.531Z,99.99
2017-01-16T10:51:31.513Z,99.99
2017-01-16T10:52:31.178Z,99.99
2017-01-16T10:53:31.153Z,99.99
2017-01-16T10:54:31.036Z,99.99
2017-01-16T10:55:31.748Z,99.99
2017-01-16T10:56:31.057Z,99.99
2017-01-16T10:57:30.957Z,99.99
2017-01-16T10:58:31.654Z,99.99
2017-01-16T10:59:31.649Z,99.99
2017-01-16T11:00:31.649Z,99.99
2017-01-16T11:01:31.277Z,99.99
2017-01-16T11:02:30.921Z,99.99
2017-01-16T11:03:31.542Z,99.99
2017-01-16T11:04:31.574Z,99.99
2017-01-16T11:05:31.171Z,99.99
2017-01-16T11:06:30.831Z,98.64
2017-01-16T11:07:30.802Z,96.5
2017-01-16T11:08:31.431Z,93.6
2017-01-16T11:09:30.679Z,92.56
2017-01-16T11:10:30.662Z,92.18
2017-01-16T11:11:30.628Z,92.85
2017-01-16T11:12:31.369Z,94.03
2017-01-16T11:13:31.329Z,93.94
2017-01-16T11:14:31.301Z,94.13
2017-01-16T11:15:30.544Z,94.13
2017-01-16T11:16:30.608Z,94.32
2017-01-16T11:17:30.586Z,94.98
2017-01-16T11:18:31.216Z,95.6
2017-01-16T11:19:30.448Z,95.89
2017-01-16T11:20:31.194Z,96.26
2017-01-16T11:21:30.487Z,96.83
2017-01-16T11:22:31.115Z,97.41
2017-01-16T11:23:31.091Z,97.78
2017-01-16T11:24:30.755Z,97.78
2017-01-16T11:25:30.714Z,97.36
2017-01-16T11:26:31.015Z,97.36
2017-01-16T11:27:30.998Z,98.68
2017-01-16T11:28:30.987Z,99.39
2017-01-16T11:29:30.320Z,99.99
2017-01-16T11:30:30.608Z,99.96
2017-01-16T11:31:30.925Z,99.54
2017-01-16T11:32:30.957Z,99.16
2017-01-16T11:33:30.740Z,98.4
2017-01-16T11:34:30.710Z,97.6
2017-01-16T11:35:30.169Z,97.5
2017-01-16T11:36:30.934Z,97.17
2017-01-16T11:37:30.146Z,98.21
2017-01-16T11:38:30.774Z,97.83
2017-01-16T11:39:30.715Z,98.59
2017-01-16T11:40:30.744Z,98.97
2017-01-16T11:41:30.671Z,99.26
2017-01-16T11:42:30.655Z,98.68
2017-01-16T11:43:30.302Z,98.49
2017-01-16T11:44:30.327Z,98.35
2017-01-16T11:45:29.933Z,97.41
2017-01-16T11:46:30.052Z,97.5
2017-01-16T11:47:30.214Z,95.98
2017-01-16T11:48:30.544Z,94.42
2017-01-16T11:49:30.489Z,93.32
2017-01-16T11:50:30.160Z,91.37
2017-01-16T11:51:30.451Z,89.32
2017-01-16T11:52:29.809Z,88.46
2017-01-16T11:53:29.665Z,88.37
2017-01-16T11:54:29.796Z,88.33
2017-01-16T11:55:30.217Z,89
2017-01-16T11:56:30.477Z,88.61
2017-01-16T11:57:30.342Z,87.76
2017-01-16T11:58:30.297Z,86.18
2017-01-16T11:59:30.268Z,85.66
2017-01-16T12:00:29.635Z,85.75
2017-01-16T12:01:30.235Z,86.38
2017-01-16T12:02:30.075Z,87.19
2017-01-16T12:03:30.206Z,86.18
2017-01-16T12:04:29.530Z,85.56
2017-01-16T12:05:30.158Z,84.13
2017-01-16T12:06:29.800Z,81.79
2017-01-16T12:07:29.448Z,81.56
2017-01-16T12:08:29.462Z,81.41
2017-01-16T12:09:29.417Z,80.65
2017-01-16T12:10:29.746Z,79.64
2017-01-16T12:11:29.756Z,79.93
2017-01-16T12:12:29.777Z,80.18
2017-01-16T12:13:30.004Z,81.41
2017-01-16T12:14:29.336Z,82.51
2017-01-16T12:15:29.963Z,83.71
2017-01-16T12:16:29.958Z,84.19
2017-01-16T12:17:29.629Z,84.19
2017-01-16T12:18:29.270Z,82.9
2017-01-16T12:19:29.878Z,81.6
2017-01-16T12:20:29.859Z,80.36
2017-01-16T12:21:29.529Z,79.55
2017-01-16T12:22:29.159Z,78.69
2017-01-16T12:23:29.130Z,78.85
2017-01-16T12:24:29.036Z,78.31
2017-01-16T12:25:29.766Z,77.2
2017-01-16T12:26:29.744Z,77.4
2017-01-16T12:27:29.065Z,76.88
2017-01-16T12:28:29.034Z,77.55
2017-01-16T12:29:29.363Z,76.69
2017-01-16T12:30:28.940Z,76.4
2017-01-16T12:31:29.662Z,77.19
2017-01-16T12:32:29.290Z,79.43
2017-01-16T12:33:29.598Z,80.66
2017-01-16T12:34:29.620Z,80.71
2017-01-16T12:35:29.559Z,79.22
2017-01-16T12:36:28.908Z,78.27
2017-01-16T12:37:29.549Z,76.88
2017-01-16T12:38:29.519Z,75.84
2017-01-16T12:39:29.496Z,75.64
2017-01-16T12:40:29.155Z,76.08
2017-01-16T12:41:29.468Z,76.75
2017-01-16T12:42:28.704Z,76.08
2017-01-16T12:43:29.434Z,75.51
2017-01-16T12:44:29.074Z,75.45
2017-01-16T12:45:29.370Z,75.16
2017-01-16T12:46:29.363Z,74.69
2017-01-16T12:47:28.601Z,74.21
2017-01-16T12:48:29.328Z,75.42
2017-01-16T12:49:29.320Z,75.99
2017-01-16T12:50:28.956Z,75.51
2017-01-16T12:51:29.276Z,75.42
2017-01-16T12:52:29.361Z,75.32
2017-01-16T12:53:29.277Z,75.42